Terminal Aerodrome Forecast
Issued by NWS

Home | Current Version | Previous Version | Graphics & Text | Print | Product List | Glossary On
Versions: 1 2 3 4 5 6 7 8 9 10 11 12 13 14 15
000
FTUS43 KMPX 180520
TAFRNH
TAF
KRNH 180520Z 1806/1906 06005KT P6SM BKN050
     FM181000 05007KT P6SM OVC025
     FM182000 01012KT P6SM VCSH OVC015
     FM182300 01012KT P6SM BKN150=

USA.gov is the U.S. government's official web portal to all federal, state and local government web resources and services.